createdAt,value
2017-05-07T00:00:45.548Z,11.22
2017-05-07T00:03:13.861Z,10.87
2017-05-07T00:05:42.169Z,12.25
2017-05-07T00:08:10.481Z,12.12
2017-05-07T00:10:38.803Z,11.52
2017-05-07T00:13:07.985Z,11.63
2017-05-07T00:15:36.393Z,11.18
2017-05-07T00:18:04.702Z,11.18
2017-05-07T00:20:33.014Z,12.53
2017-05-07T00:23:02.061Z,12.47
2017-05-07T00:25:30.537Z,11.65
2017-05-07T00:27:58.894Z,12.23
2017-05-07T00:30:27.213Z,12.25
2017-05-07T00:32:55.566Z,11.65
2017-05-07T00:35:23.872Z,11.20
2017-05-07T00:37:52.225Z,11.90
2017-05-07T00:40:21.273Z,10.60
2017-05-07T00:42:49.684Z,11.97
2017-05-07T00:45:18.002Z,10.72
2017-05-07T00:47:46.310Z,11.23
2017-05-07T00:50:14.681Z,11.92
2017-05-07T00:52:43.014Z,11.32
2017-05-07T00:55:11.326Z,11.50
2017-05-07T00:57:39.637Z,11.72
2017-05-07T01:00:08.689Z,11.45
2017-05-07T01:02:36.997Z,12.22
2017-05-07T01:05:05.310Z,12.13
2017-05-07T01:07:33.658Z,11.70
2017-05-07T01:10:01.977Z,11.57
2017-05-07T01:12:30.285Z,12.42
2017-05-07T01:14:58.715Z,11.85
2017-05-07T01:17:27.416Z,11.63
2017-05-07T01:19:55.788Z,11.47
2017-05-07T01:22:24.098Z,11.90
2017-05-07T01:24:53.122Z,11.73
2017-05-07T01:27:21.433Z,11.65
2017-05-07T01:29:49.747Z,12.95
2017-05-07T01:32:18.807Z,12.90
2017-05-07T01:34:47.429Z,12.17
2017-05-07T01:37:15.770Z,11.60
2017-05-07T01:39:44.102Z,10.30
2017-05-07T01:42:12.411Z,10.63
2017-05-07T01:44:40.721Z,10.67
2017-05-07T01:47:09.034Z,10.35
2017-05-07T01:49:37.350Z,11.08
2017-05-07T01:52:05.668Z,11.37
2017-05-07T01:54:34.726Z,12.52
2017-05-07T01:57:03.041Z,12.38
2017-05-07T01:59:31.396Z,12.23
2017-05-07T02:01:59.716Z,11.92
2017-05-07T02:04:28.027Z,12.97
2017-05-07T02:06:56.342Z,12.05
2017-05-07T02:09:24.662Z,11.38
2017-05-07T02:11:53.717Z,10.70
2017-05-07T02:14:22.149Z,10.32
2017-05-07T02:16:50.457Z,11.22
2017-05-07T02:19:19.054Z,11.30
2017-05-07T02:21:47.365Z,11.58
2017-05-07T02:24:15.681Z,10.85
2017-05-07T02:26:44.742Z,12.13
2017-05-07T02:29:13.051Z,11.53
2017-05-07T02:31:41.521Z,10.72
2017-05-07T02:34:09.830Z,12.20
2017-05-07T02:36:38.161Z,11.85
2017-05-07T02:39:06.472Z,11.57
2017-05-07T02:41:34.782Z,11.25
2017-05-07T02:44:03.098Z,11.40
2017-05-07T02:46:32.147Z,12.35
2017-05-07T02:49:00.453Z,13.18
2017-05-07T02:51:28.806Z,13.15
2017-05-07T02:53:58.053Z,13.10
2017-05-07T02:56:26.358Z,12.42
2017-05-07T02:58:54.666Z,13.12
2017-05-07T03:01:22.981Z,12.55
2017-05-07T03:03:51.297Z,12.15
2017-05-07T03:06:19.607Z,11.92
2017-05-07T03:08:48.964Z,12.48
2017-05-07T03:11:17.317Z,10.88
2017-05-07T03:13:45.634Z,11.28
2017-05-07T03:16:15.021Z,11.48
2017-05-07T03:18:43.325Z,11.60
2017-05-07T03:21:11.632Z,11.43
2017-05-07T03:23:39.959Z,11.02
2017-05-07T03:26:09.014Z,12.42
2017-05-07T03:28:37.322Z,11.68
2017-05-07T03:31:05.646Z,13.37
2017-05-07T03:33:36.990Z,12.47
2017-05-07T03:36:05.297Z,12.38
2017-05-07T03:38:33.601Z,12.17
2017-05-07T03:41:02.058Z,12.13
2017-05-07T03:43:30.381Z,11.85
2017-05-07T03:45:58.741Z,12.80
2017-05-07T03:48:27.098Z,11.93
2017-05-07T03:50:55.464Z,10.75
2017-05-07T03:53:23.978Z,11.95
2017-05-07T03:55:52.442Z,12.82
2017-05-07T03:58:21.489Z,13.47
2017-05-07T04:00:49.830Z,12.88
2017-05-07T04:03:18.166Z,13.02
2017-05-07T04:05:46.491Z,13.05
2017-05-07T04:08:14.862Z,13.30
2017-05-07T04:10:43.228Z,12.95
2017-05-07T04:13:11.661Z,12.55
2017-05-07T04:15:39.988Z,13.42
2017-05-07T04:18:08.410Z,13.97
2017-05-07T04:20:36.736Z,12.68
2017-05-07T04:23:05.785Z,9.90
2017-05-07T04:25:34.230Z,10.00
2017-05-07T04:28:02.538Z,10.98
2017-05-07T04:30:30.865Z,10.82
2017-05-07T04:32:59.173Z,10.83
2017-05-07T04:35:27.483Z,11.17
2017-05-07T04:37:55.790Z,10.92
2017-05-07T04:40:24.101Z,11.58
2017-05-07T04:42:52.414Z,11.35
2017-05-07T04:45:20.729Z,11.30
2017-05-07T04:47:49.285Z,10.90
2017-05-07T04:50:17.593Z,10.80
2017-05-07T04:52:45.904Z,11.20
2017-05-07T04:55:14.265Z,10.50
2017-05-07T04:57:42.575Z,11.32
2017-05-07T05:00:10.885Z,12.37
2017-05-07T05:02:40.043Z,13.08
2017-05-07T05:05:08.357Z,12.72
2017-05-07T05:07:37.412Z,12.27
2017-05-07T05:10:06.293Z,11.90
2017-05-07T05:12:34.990Z,11.88
2017-05-07T05:15:03.615Z,12.52
2017-05-07T05:17:31.929Z,10.95
2017-05-07T05:20:15.590Z,10.40
2017-05-07T05:23:01.559Z,9.88
2017-05-07T05:25:33.696Z,10.82
2017-05-07T05:28:06.145Z,10.25
2017-05-07T05:30:36.806Z,10.25
2017-05-07T05:33:05.123Z,10.13
2017-05-07T05:35:33.445Z,13.38
2017-05-07T05:38:02.501Z,14.07
2017-05-07T05:40:30.812Z,11.03
2017-05-07T05:42:59.121Z,10.67
2017-05-07T05:45:27.431Z,10.70
2017-05-07T05:47:56.619Z,11.03
2017-05-07T05:50:25.765Z,11.50
2017-05-07T05:52:54.075Z,11.32
2017-05-07T05:55:23.651Z,13.68
2017-05-07T05:57:53.393Z,11.83
2017-05-07T06:00:21.701Z,12.30
2017-05-07T06:02:50.040Z,15.40
2017-05-07T06:05:19.089Z,13.88
2017-05-07T06:07:47.394Z,16.17
2017-05-07T06:10:15.701Z,15.25
2017-05-07T06:12:45.461Z,16.73
2017-05-07T06:15:13.778Z,16.57
2017-05-07T06:17:43.161Z,18.48
2017-05-07T06:20:11.493Z,22.40
2017-05-07T06:22:41.004Z,17.15
2017-05-07T06:25:09.318Z,19.32
2017-05-07T06:27:38.369Z,21.10
2017-05-07T06:30:06.697Z,19.92
2017-05-07T06:32:35.009Z,20.75
2017-05-07T06:35:03.364Z,20.27
2017-05-07T06:37:31.671Z,22.05
2017-05-07T06:40:00.134Z,25.08
2017-05-07T06:42:28.445Z,27.48
2017-05-07T06:44:56.766Z,27.62
2017-05-07T06:47:25.093Z,26.63
2017-05-07T06:49:53.635Z,28.13
2017-05-07T06:52:22.687Z,28.00
2017-05-07T06:54:50.996Z,28.45
2017-05-07T06:57:19.313Z,28.60
2017-05-07T06:59:47.869Z,28.75
2017-05-07T07:02:16.659Z,28.33
2017-05-07T07:04:45.713Z,27.78
2017-05-07T07:07:14.021Z,28.85
2017-05-07T07:09:42.377Z,28.88
2017-05-07T07:12:11.431Z,30.32
2017-05-07T07:14:39.780Z,29.17
2017-05-07T07:17:08.831Z,29.45
2017-05-07T07:19:37.146Z,30.40
2017-05-07T07:22:05.461Z,33.22
2017-05-07T07:24:33.782Z,35.42
2017-05-07T07:27:02.094Z,34.88
2017-05-07T07:29:31.565Z,35.77
2017-05-07T07:31:59.876Z,33.75
2017-05-07T07:34:28.229Z,33.67
2017-05-07T07:36:56.553Z,34.90
2017-05-07T07:39:25.281Z,33.35
2017-05-07T07:41:53.588Z,34.20
2017-05-07T07:44:21.904Z,32.88
2017-05-07T07:46:50.242Z,32.88
2017-05-07T07:49:18.562Z,31.72
2017-05-07T07:51:47.033Z,32.58
2017-05-07T07:54:15.346Z,30.58
2017-05-07T07:56:43.657Z,32.20
2017-05-07T07:59:12.228Z,32.95
2017-05-07T08:01:41.277Z,33.65
2017-05-07T08:04:09.591Z,34.35
2017-05-07T08:06:37.904Z,33.35
2017-05-07T08:09:06.254Z,34.53
2017-05-07T08:11:34.573Z,33.97
2017-05-07T08:14:03.194Z,33.68
2017-05-07T08:16:31.784Z,33.58
2017-05-07T08:19:00.094Z,32.57
2017-05-07T08:21:28.443Z,32.43
2017-05-07T08:23:57.357Z,31.07
2017-05-07T08:26:25.674Z,29.20
2017-05-07T08:28:54.371Z,30.47
2017-05-07T08:31:22.683Z,31.32
2017-05-07T08:33:51.226Z,30.68
2017-05-07T08:36:19.546Z,31.68
2017-05-07T08:38:48.601Z,32.75
2017-05-07T08:41:16.917Z,33.15
2017-05-07T08:43:45.616Z,31.82
2017-05-07T08:46:13.933Z,30.60
2017-05-07T08:48:42.241Z,31.08
2017-05-07T08:51:10.557Z,29.57
2017-05-07T08:53:39.610Z,28.03
2017-05-07T08:56:07.964Z,30.98
2017-05-07T08:58:38.101Z,29.33
2017-05-07T09:01:08.181Z,30.08
2017-05-07T09:03:36.582Z,29.88
2017-05-07T09:06:04.897Z,29.87
2017-05-07T09:08:33.209Z,28.68
2017-05-07T09:11:01.518Z,29.00
2017-05-07T09:16:39.133Z,28.10
2017-05-07T09:19:17.153Z,28.93
2017-05-07T09:21:45.508Z,29.20
2017-05-07T09:24:13.822Z,28.60
2017-05-07T09:26:42.145Z,26.83
2017-05-07T09:29:10.697Z,28.28
2017-05-07T09:31:39.446Z,27.23
2017-05-07T09:34:07.762Z,25.87
2017-05-07T09:36:36.078Z,24.93
2017-05-07T09:39:05.209Z,26.57
2017-05-07T09:41:33.521Z,27.03
2017-05-07T09:44:01.831Z,27.72
2017-05-07T09:46:30.137Z,27.90
2017-05-07T09:48:58.449Z,28.45
2017-05-07T09:51:26.805Z,26.77
2017-05-07T09:53:55.125Z,25.43
2017-05-07T09:56:23.432Z,26.32
2017-05-07T09:58:51.743Z,27.08
2017-05-07T10:01:20.204Z,26.07
2017-05-07T10:03:48.513Z,26.37
2017-05-07T10:06:16.821Z,26.27
2017-05-07T10:08:45.936Z,27.53
2017-05-07T10:11:14.269Z,26.08
2017-05-07T10:13:42.597Z,25.75
2017-05-07T10:16:11.656Z,25.98
2017-05-07T10:18:40.137Z,27.48
2017-05-07T10:21:08.449Z,26.93
2017-05-07T10:23:36.813Z,26.28
2017-05-07T10:26:06.246Z,27.97
2017-05-07T10:28:34.561Z,29.98
2017-05-07T10:31:02.873Z,29.00
2017-05-07T10:33:31.190Z,30.65
2017-05-07T10:35:59.746Z,30.85
2017-05-07T10:38:28.510Z,30.97
2017-05-07T10:40:56.834Z,32.18
2017-05-07T10:43:25.897Z,33.02
2017-05-07T10:45:54.213Z,37.02
2017-05-07T10:48:22.530Z,36.28
2017-05-07T10:50:51.450Z,34.53
2017-05-07T10:53:19.761Z,34.67
2017-05-07T10:55:48.817Z,35.97
2017-05-07T10:58:17.538Z,33.33
2017-05-07T11:00:46.230Z,32.88
2017-05-07T11:03:17.177Z,32.62
2017-05-07T11:05:45.510Z,34.20
2017-05-07T11:08:13.822Z,34.83
2017-05-07T11:10:42.450Z,34.95
2017-05-07T11:13:11.503Z,36.18
2017-05-07T11:15:39.821Z,35.92
2017-05-07T11:18:08.286Z,35.10
2017-05-07T11:20:36.602Z,34.85
2017-05-07T11:23:04.965Z,33.62
2017-05-07T11:25:34.017Z,33.95
2017-05-07T11:28:02.389Z,34.68
2017-05-07T11:30:30.701Z,32.83
2017-05-07T11:32:59.218Z,34.20
2017-05-07T11:35:27.537Z,33.27
2017-05-07T11:37:55.857Z,33.08
2017-05-07T11:40:24.183Z,32.17
2017-05-07T11:42:52.511Z,33.03
2017-05-07T11:45:20.832Z,31.07
2017-05-07T11:47:49.157Z,30.38
2017-05-07T11:50:18.970Z,27.07
2017-05-07T11:52:47.291Z,29.77
2017-05-07T11:55:16.351Z,27.67
2017-05-07T11:57:44.918Z,29.40
2017-05-07T12:00:13.978Z,29.00
2017-05-07T12:02:42.553Z,30.98
2017-05-07T12:05:10.877Z,29.02
2017-05-07T12:07:39.197Z,26.48
2017-05-07T12:10:07.509Z,25.03
2017-05-07T12:12:35.866Z,25.75
2017-05-07T12:15:04.601Z,24.78
2017-05-07T12:17:32.927Z,27.28
2017-05-07T12:20:01.992Z,26.02
2017-05-07T12:22:30.305Z,27.52
2017-05-07T12:24:58.628Z,34.17
2017-05-07T12:27:26.954Z,34.35
2017-05-07T12:29:56.005Z,37.52
2017-05-07T12:32:24.380Z,37.53
2017-05-07T12:34:52.746Z,36.80
2017-05-07T12:37:21.066Z,34.72
2017-05-07T12:39:49.413Z,36.45
2017-05-07T12:42:18.226Z,35.62
2017-05-07T12:44:46.546Z,39.08
2017-05-07T12:47:14.869Z,37.62
2017-05-07T12:49:43.946Z,38.73
2017-05-07T12:52:12.266Z,36.52
2017-05-07T12:54:41.331Z,35.03
2017-05-07T12:57:09.972Z,34.87
2017-05-07T12:59:38.293Z,34.08
2017-05-07T13:02:07.358Z,32.22
2017-05-07T13:04:36.049Z,32.97
2017-05-07T13:07:04.365Z,30.05
2017-05-07T13:09:32.693Z,28.87
2017-05-07T13:12:01.004Z,26.52
2017-05-07T13:14:29.713Z,24.25
2017-05-07T13:16:58.777Z,26.08
2017-05-07T13:19:27.101Z,24.92
2017-05-07T13:21:55.428Z,24.68
2017-05-07T13:24:24.491Z,24.02
2017-05-07T13:26:52.903Z,26.35
2017-05-07T13:29:21.217Z,24.73
2017-05-07T13:31:49.533Z,24.25
2017-05-07T13:34:17.850Z,22.28
2017-05-07T13:36:46.170Z,20.55
2017-05-07T13:39:14.482Z,19.07
2017-05-07T13:41:42.801Z,17.08
2017-05-07T13:44:11.208Z,18.57
2017-05-07T13:46:39.526Z,17.10
2017-05-07T13:49:07.890Z,17.75
2017-05-07T13:51:36.508Z,16.00
2017-05-07T13:54:05.245Z,16.97
2017-05-07T13:56:34.315Z,20.38
2017-05-07T13:59:02.637Z,25.77
2017-05-07T14:01:30.957Z,26.07
2017-05-07T14:04:00.021Z,23.92
2017-05-07T14:06:28.627Z,25.97
2017-05-07T14:08:56.953Z,27.38
2017-05-07T14:11:25.270Z,27.23
2017-05-07T14:13:53.586Z,26.47
2017-05-07T14:16:21.905Z,25.05
2017-05-07T14:18:50.217Z,26.22
2017-05-07T14:21:18.947Z,26.50
2017-05-07T14:23:47.262Z,26.27
2017-05-07T14:26:15.585Z,25.12
2017-05-07T14:28:45.066Z,23.37
2017-05-07T14:31:13.386Z,22.02
2017-05-07T14:33:41.701Z,21.42
2017-05-07T14:36:10.757Z,20.83
2017-05-07T14:38:39.077Z,18.83
2017-05-07T14:41:07.389Z,18.47
2017-05-07T14:43:35.705Z,19.38
2017-05-07T14:46:04.763Z,18.50
2017-05-07T14:48:33.097Z,17.82
2017-05-07T14:51:01.413Z,17.13
2017-05-07T14:53:29.734Z,17.12
2017-05-07T14:55:58.089Z,16.83
2017-05-07T14:58:26.417Z,16.83
2017-05-07T15:00:55.809Z,16.22
2017-05-07T15:03:24.137Z,17.08
2017-05-07T15:05:53.206Z,18.13
2017-05-07T15:08:21.621Z,16.03
2017-05-07T15:10:49.929Z,18.28
2017-05-07T15:13:18.247Z,18.53
2017-05-07T15:15:47.308Z,17.20
2017-05-07T15:18:16.141Z,18.08
2017-05-07T15:20:44.453Z,15.92
2017-05-07T15:23:12.764Z,18.40
2017-05-07T15:25:41.090Z,18.90
2017-05-07T15:28:09.709Z,19.85
2017-05-07T15:30:38.021Z,20.85
2017-05-07T15:33:06.341Z,22.08
2017-05-07T15:35:34.660Z,21.92
2017-05-07T15:38:03.724Z,22.38
2017-05-07T15:40:32.818Z,23.18
2017-05-07T15:43:01.261Z,24.82
2017-05-07T15:45:29.573Z,26.23
2017-05-07T15:47:58.169Z,28.05
2017-05-07T15:50:26.492Z,27.88
2017-05-07T15:52:54.805Z,27.23
2017-05-07T15:55:23.860Z,26.62
2017-05-07T15:57:52.173Z,27.68
2017-05-07T16:00:20.483Z,26.05
2017-05-07T16:02:48.789Z,24.60
2017-05-07T16:05:17.165Z,25.27
2017-05-07T16:07:45.473Z,24.82
2017-05-07T16:10:13.781Z,25.03
2017-05-07T16:12:42.457Z,24.48
2017-05-07T16:15:10.777Z,24.57
2017-05-07T16:24:10.637Z,24.52
2017-05-07T16:26:45.877Z,23.23
2017-05-07T16:29:22.417Z,23.87
2017-05-07T16:31:50.753Z,22.80
2017-05-07T16:34:19.081Z,23.02
2017-05-07T16:36:47.389Z,22.95
2017-05-07T16:39:15.697Z,22.95
2017-05-07T16:41:44.012Z,22.15
2017-05-07T16:44:12.316Z,21.13
2017-05-07T16:46:40.624Z,23.18
2017-05-07T16:49:08.941Z,24.08
2017-05-07T16:51:37.995Z,23.90
2017-05-07T16:54:06.301Z,22.37
2017-05-07T16:56:34.634Z,22.82
2017-05-07T16:59:02.977Z,23.87
2017-05-07T17:01:31.298Z,21.90
2017-05-07T17:03:59.613Z,23.45
2017-05-07T17:06:44.629Z,21.18
2017-05-07T17:09:15.025Z,22.98
2017-05-07T17:11:43.340Z,24.02
2017-05-07T17:14:11.673Z,23.70
2017-05-07T17:16:39.985Z,24.18
2017-05-07T17:19:08.573Z,21.78
2017-05-07T17:21:37.630Z,23.50
2017-05-07T17:24:05.965Z,23.28
2017-05-07T17:26:34.549Z,22.97
2017-05-07T17:29:02.862Z,22.32
2017-05-07T17:31:31.170Z,21.03
2017-05-07T17:34:00.226Z,20.85
2017-05-07T17:36:28.542Z,22.03
2017-05-07T17:38:56.853Z,20.63
2017-05-07T17:41:25.601Z,20.67
2017-05-07T17:43:54.654Z,20.08
2017-05-07T17:46:22.973Z,20.50
2017-05-07T17:48:51.337Z,21.07
2017-05-07T17:51:19.657Z,20.72
2017-05-07T17:53:48.321Z,19.38
2017-05-07T17:56:16.637Z,19.40
2017-05-07T17:58:44.951Z,19.18
2017-05-07T18:01:13.272Z,20.27
2017-05-07T18:03:41.601Z,19.87
2017-05-07T18:06:10.698Z,19.40
2017-05-07T18:08:39.006Z,21.77
2017-05-07T18:11:08.820Z,20.30
2017-05-07T18:13:37.132Z,21.23
2017-05-07T18:16:05.456Z,21.22
2017-05-07T18:18:34.509Z,21.10
2017-05-07T18:21:03.005Z,21.75
2017-05-07T18:23:31.318Z,22.78
2017-05-07T18:25:59.630Z,20.20
2017-05-07T18:28:27.941Z,20.82
2017-05-07T18:30:56.259Z,20.10
2017-05-07T18:33:25.351Z,21.17
2017-05-07T18:35:53.983Z,21.23
2017-05-07T18:38:22.325Z,21.08
2017-05-07T18:40:50.641Z,20.08
2017-05-07T18:43:24.337Z,20.45
2017-05-07T18:45:52.645Z,21.63
2017-05-07T18:48:20.963Z,20.83
2017-05-07T18:50:49.760Z,21.42
2017-05-07T18:53:18.074Z,21.55
2017-05-07T18:55:46.385Z,21.27
2017-05-07T18:58:14.706Z,20.85
2017-05-07T19:00:43.758Z,19.33
2017-05-07T19:03:12.226Z,21.27
2017-05-07T19:05:40.550Z,21.62
2017-05-07T19:08:08.857Z,19.98
2017-05-07T19:10:37.173Z,20.02
2017-05-07T19:13:05.533Z,19.97
2017-05-07T19:15:33.909Z,20.02
2017-05-07T19:18:02.965Z,20.08
2017-05-07T19:20:31.272Z,19.62
2017-05-07T19:22:59.585Z,20.40
2017-05-07T19:25:28.201Z,20.13
2017-05-07T19:27:56.517Z,18.93
2017-05-07T19:30:25.575Z,19.33
2017-05-07T19:32:53.927Z,20.53
2017-05-07T19:35:22.237Z,19.97
2017-05-07T19:37:52.066Z,19.43
2017-05-07T19:40:21.120Z,19.52
2017-05-07T19:42:49.429Z,19.60
2017-05-07T19:45:17.747Z,19.37
2017-05-07T19:47:46.057Z,20.52
2017-05-07T19:50:14.849Z,19.23
2017-05-07T19:52:43.454Z,18.87
2017-05-07T19:55:11.768Z,20.22
2017-05-07T19:57:40.114Z,21.17
2017-05-07T20:00:08.428Z,21.38
2017-05-07T20:02:36.737Z,19.90
2017-05-07T20:05:05.357Z,20.20
2017-05-07T20:07:33.669Z,20.10
2017-05-07T20:10:01.978Z,19.63
2017-05-07T20:12:31.034Z,21.33
2017-05-07T20:14:59.342Z,22.38
2017-05-07T20:17:27.654Z,21.58
2017-05-07T20:19:55.962Z,20.08
2017-05-07T20:22:24.397Z,21.50
2017-05-07T20:24:53.454Z,18.48
2017-05-07T20:27:21.774Z,20.30
2017-05-07T20:29:50.085Z,19.05
2017-05-07T20:32:18.554Z,19.40
2017-05-07T20:34:46.865Z,19.18
2017-05-07T20:37:15.177Z,19.48
2017-05-07T20:39:43.489Z,17.92
2017-05-07T20:42:11.810Z,18.65
2017-05-07T20:44:40.163Z,20.07
2017-05-07T20:47:08.873Z,19.67
2017-05-07T20:49:37.184Z,18.37
2017-05-07T20:52:05.504Z,18.30
2017-05-07T20:54:34.808Z,18.53
2017-05-07T20:57:03.880Z,17.70
2017-05-07T20:59:32.189Z,18.08
2017-05-07T21:02:01.116Z,16.77
2017-05-07T21:04:29.429Z,16.75
2017-05-07T21:06:57.737Z,15.42
2017-05-07T21:09:26.045Z,13.55
2017-05-07T21:11:55.100Z,12.42
2017-05-07T21:14:23.415Z,11.73
2017-05-07T21:16:51.726Z,11.67
2017-05-07T21:19:20.037Z,10.73
2017-05-07T21:21:48.525Z,10.88
2017-05-07T21:24:16.926Z,10.85
2017-05-07T21:26:45.233Z,10.17
2017-05-07T21:29:13.541Z,11.00
2017-05-07T21:31:41.853Z,11.02
2017-05-07T21:34:10.906Z,10.55
2017-05-07T21:36:39.265Z,10.43
2017-05-07T21:39:08.325Z,10.97
2017-05-07T21:41:36.682Z,11.92
2017-05-07T21:44:05.005Z,12.17
2017-05-07T21:46:33.355Z,12.53
2017-05-07T21:49:01.670Z,11.32
2017-05-07T21:51:30.106Z,11.92
2017-05-07T21:53:59.947Z,12.45
2017-05-07T21:56:29.066Z,12.18
2017-05-07T21:58:57.422Z,13.52
2017-05-07T22:01:26.474Z,13.50
2017-05-07T22:03:55.105Z,13.13
2017-05-07T22:06:23.413Z,14.15
2017-05-07T22:08:51.721Z,13.58
2017-05-07T22:11:20.578Z,14.77
2017-05-07T22:13:48.901Z,14.62
2017-05-07T22:16:17.253Z,15.45
2017-05-07T22:18:47.086Z,15.15
2017-05-07T22:21:16.293Z,15.98
2017-05-07T22:23:44.933Z,15.70
2017-05-07T22:26:13.244Z,17.85
2017-05-07T22:28:41.613Z,16.55
2017-05-07T22:31:11.029Z,18.05
2017-05-07T22:33:40.076Z,18.47
2017-05-07T22:36:08.384Z,18.48
2017-05-07T22:38:36.689Z,19.10
2017-05-07T22:41:05.006Z,18.57
2017-05-07T22:43:33.318Z,19.88
2017-05-07T22:46:01.906Z,20.10
2017-05-07T22:48:30.213Z,19.65
2017-05-07T22:50:58.594Z,21.58
2017-05-07T22:53:26.905Z,23.67
2017-05-07T22:55:55.213Z,23.78
2017-05-07T22:58:23.525Z,24.85
2017-05-07T23:00:52.581Z,25.12
2017-05-07T23:03:20.906Z,26.33
2017-05-07T23:05:49.521Z,26.47
2017-05-07T23:08:17.830Z,27.53
2017-05-07T23:10:46.436Z,27.82
2017-05-07T23:13:14.745Z,28.63
2017-05-07T23:15:43.102Z,29.20
2017-05-07T23:18:11.676Z,30.15
2017-05-07T23:20:40.034Z,31.32
2017-05-07T23:23:08.637Z,29.10
2017-05-07T23:25:36.945Z,33.13
2017-05-07T23:28:05.257Z,33.08
2017-05-07T23:30:34.311Z,33.45
2017-05-07T23:33:03.045Z,30.93
2017-05-07T23:35:31.354Z,29.33
2017-05-07T23:37:59.666Z,27.63
2017-05-07T23:40:27.986Z,22.08
2017-05-07T23:42:56.307Z,22.05
2017-05-07T23:45:24.622Z,21.42
2017-05-07T23:47:52.934Z,22.63
2017-05-07T23:50:21.241Z,22.38
2017-05-07T23:52:49.553Z,23.27
2017-05-07T23:55:17.867Z,24.48
2017-05-07T23:57:46.918Z,28.83
